• Join FlightAware (Why Join?)
  • Login
  • US Flag 
05:29AM EDT


 

Airport Tracker/Info


-or-


 

Live Flight TrackerFlight Track Log ✈ N102VU ✈ 17-Oct-2013 ✈ TN35 - KTHA

Flight Track Log - Related Links

Times and Time Zones

All times are in EDT time to prevent confusion due to time zone crossing. See the N102VU flight status page for this flight to view local times or setup timezone preferences in your user account.

Time Position Orientation Groundspeed Altitude Reporting Facility
EDT Latitude Longitude Course Direction KTS MPH feet Rate Location/Type
04:32PM 36.1167 -86.8167 205° Southwest 91 105 1,400  Level Nashville TRACON
04:32PM 36.1042 -86.8272 214° Southwest 120 138 1,900 720 Climbing Memphis Center
04:33PM 36.0839 -86.8461 217° Southwest 113 130 2,700 600 Climbing Memphis Center
04:34PM 36.0594 -86.8678 216° Southwest 108 124 3,100 360 Climbing Memphis Center
04:35PM 36.0339 -86.8508 152° Southeast 99 114 3,500 480 Climbing Memphis Center
04:36PM 36.0081 -86.8261 142° Southeast 105 121 4,100 660 Climbing Memphis Center
04:37PM 35.9808 -86.8172 165° South 105 121 4,900 480 Climbing Memphis Center
04:38PM 35.9492 -86.8006 157° South 116 133 5,100 60 Climbing Memphis Center
04:39PM 35.9194 -86.7839 156° South 121 139 5,100  Level Memphis Center
04:40PM 35.8856 -86.7650 156° South 133 153 5,100  Level Memphis Center
04:41PM 35.8494 -86.7486 160° South 133 153 5,100  Level Memphis Center
04:42PM 35.8156 -86.7294 155° Southeast 133 153 5,100  Level Memphis Center
04:43PM 35.7817 -86.7106 156° South 133 153 5,100  Level Memphis Center
04:44PM 35.7478 -86.6917 156° South 133 153 5,100 -60 Level Memphis Center
04:45PM 35.7139 -86.6728 156° South 133 153 5,000 -60 Descending Memphis Center
04:46PM 35.6739 -86.6567 162° South 133 153 5,000  Level Memphis Center
04:47PM 35.6397 -86.6350 153° Southeast 133 153 5,000  Level Memphis Center
04:48PM 35.6058 -86.6161 156° South 133 153 5,000 -180 Level Memphis Center
04:49PM 35.5697 -86.5975 157° South 140 161 4,700 -600 Descending Memphis Center
04:50PM 35.5317 -86.5761 155° Southeast 145 167 3,900 -540 Descending Memphis Center
04:51PM 35.4956 -86.5575 157° South 145 167 3,700 -120 Descending Memphis Center
04:52PM 35.4594 -86.5386 157° South 145 167 3,700  Level Memphis Center
04:53PM 35.4236 -86.5225 160° South 145 167 3,800  Climbing Memphis Center
04:54PM 35.3875 -86.5039 157° South 140 161 3,700 -120 Descending Memphis Center
04:55PM 35.3558 -86.4850 154° Southeast 140 161 3,600 -60 Descending Memphis Center
04:56PM 35.3217 -86.4661 156° South 135 155 3,600  Level Memphis Center
04:57PM 35.2856 -86.4450 154° Southeast 135 155 3,600  Level Memphis Center
04:58PM 35.2475 -86.4264 158° South 135 155 3,600  Level Memphis Center
04:59PM 35.2136 -86.4103 159° South 135 155 3,600  Level Memphis Center
05:00PM 35.1861 -86.3961 157° South 123 142 3,600  Level Memphis Center
05:01PM 35.1583 -86.3797 154° Southeast 112 129 3,600 -180 Level Memphis Center
05:02PM 35.1575 -86.3519 92° East 96 110 3,300 -180 Descending Memphis Center
05:03PM 35.1689 -86.3183 67° East 74 85 3,300  Level Memphis Center
05:04PM 35.1783 -86.2900 68° East 87 100 3,300  Level Memphis Center
05:05PM 35.1878 -86.2564 71° East 87 100 3,300 -300 Level Memphis Center
05:06PM 35.2083 -86.2453 24° Northeast 79 91 2,700 -360 Descending Memphis Center
05:07PM 35.2247 -86.2419 North 74 85 2,600 -60 Descending Memphis Center
05:08PM 35.2450 -86.2256 33° Northeast 74 85 2,600 1,200 Level Memphis Center
05:09PM 35.2656 -86.2119 28° Northeast 74 85 5,000 2,400 Climbing Memphis Center